Time;durP1;ratioP1;P1;durP2;ratioP2;P2;SDS_P1;SDS_P2;PMS_P1;PMS_P2;Temp;Humidity;BMP_temperature;BMP_pressure;BME280_temperature;BME280_humidity;BME280_pressure;Samples;Min_cycle;Max_cycle;Signal;HPM_P1;HPM_P2
2024/01/13 00:02:03;;;;;;;13.98;7.97;;;;;;;-1.71;100.00;93103.25;5031869;28;20463;-76
2024/01/13 00:04:29;;;;;;;10.73;6.88;;;;;;;-1.78;100.00;93091.38;5033048;28;20029;-77
2024/01/13 00:06:54;;;;;;;12.23;7.75;;;;;;;-1.79;100.00;93089.78;5032303;28;20041;-77
2024/01/13 00:09:20;;;;;;;13.85;7.53;;;;;;;-1.83;100.00;93084.25;5032837;28;20054;-77
2024/01/13 00:11:45;;;;;;;11.93;7.80;;;;;;;-1.80;100.00;93093.34;5049506;28;20051;-77
2024/01/13 00:14:11;;;;;;;11.95;7.97;;;;;;;-1.79;100.00;93094.94;5030744;28;20022;-77
2024/01/13 00:16:37;;;;;;;11.98;7.88;;;;;;;-1.80;100.00;93090.75;5033359;28;20041;-77
2024/01/13 00:19:02;;;;;;;12.13;7.78;;;;;;;-1.83;100.00;93088.59;5032682;28;20034;-77
2024/01/13 00:21:28;;;;;;;13.00;7.97;;;;;;;-1.80;100.00;93099.28;5025823;28;20116;-77
2024/01/13 00:23:53;;;;;;;13.38;8.35;;;;;;;-1.82;100.00;93095.31;5033269;28;20049;-77
2024/01/13 00:26:19;;;;;;;13.98;8.40;;;;;;;-1.85;100.00;93093.13;5031875;28;20543;-77
2024/01/13 00:28:44;;;;;;;12.30;7.70;;;;;;;-1.83;100.00;93093.72;5033015;28;20017;-77
2024/01/13 00:31:10;;;;;;;15.35;8.32;;;;;;;-1.84;100.00;93084.47;5016148;28;20034;-77
2024/01/13 00:33:36;;;;;;;12.38;8.50;;;;;;;-1.85;100.00;93083.66;5032144;28;20049;-76
2024/01/13 00:36:02;;;;;;;11.43;7.53;;;;;;;-1.86;100.00;93083.88;5032211;28;20033;-77
2024/01/13 00:38:28;;;;;;;12.40;7.88;;;;;;;-1.85;100.00;93078.53;5031848;28;20060;-77
2024/01/13 00:40:53;;;;;;;13.15;7.97;;;;;;;-1.90;100.00;93073.19;5033844;28;20435;-77
2024/01/13 00:43:19;;;;;;;11.80;7.60;;;;;;;-1.86;100.00;93076.94;5043645;28;20033;-77
2024/01/13 00:45:44;;;;;;;12.05;7.63;;;;;;;-1.86;100.00;93073.59;5010694;28;20394;-77
2024/01/13 00:48:10;;;;;;;14.50;9.05;;;;;;;-1.92;100.00;93065.69;5027137;28;20045;-77
2024/01/13 00:50:35;;;;;;;12.20;8.40;;;;;;;-1.87;100.00;93070.22;5014112;28;20042;-76
2024/01/13 00:53:03;;;;;;;15.55;8.48;;;;;;;-1.92;100.00;93073.38;5035057;28;20463;-78
2024/01/13 00:55:29;;;;;;;12.85;8.90;;;;;;;-1.93;100.00;93078.72;5031619;28;20555;-77
2024/01/13 00:57:54;;;;;;;13.98;9.45;;;;;;;-1.95;100.00;93073.00;5031735;28;20037;-77
2024/01/13 01:00:20;;;;;;;15.38;10.13;;;;;;;-1.96;100.00;93071.41;5030747;28;20033;-77
2024/01/13 01:02:46;;;;;;;13.52;9.10;;;;;;;-1.97;100.00;93068.06;5035324;28;20060;-77
2024/01/13 01:05:11;;;;;;;15.82;10.15;;;;;;;-1.99;100.00;93064.88;5034877;28;20350;-77
2024/01/13 01:07:37;;;;;;;15.50;9.60;;;;;;;-1.98;100.00;93066.47;5036252;28;20262;-77
2024/01/13 01:10:02;;;;;;;16.80;10.82;;;;;;;-1.98;100.00;93061.34;5037331;28;20045;-76
2024/01/13 01:12:28;;;;;;;15.35;9.50;;;;;;;-1.98;100.00;93066.47;5035757;28;20040;-78
2024/01/13 01:14:54;;;;;;;14.68;10.27;;;;;;;-1.98;100.00;93070.81;5035675;28;20089;-77
2024/01/13 01:17:21;;;;;;;15.25;10.73;;;;;;;-2.01;100.00;93061.72;5037044;28;20510;-77
2024/01/13 01:19:47;;;;;;;18.45;10.55;;;;;;;-2.03;100.00;93057.78;5019063;28;20571;-77
2024/01/13 01:22:12;;;;;;;17.35;11.32;;;;;;;-2.04;100.00;93062.13;5037067;28;20035;-77
2024/01/13 01:24:38;;;;;;;14.35;10.05;;;;;;;-2.08;100.00;93055.78;5036344;28;20307;-77
2024/01/13 01:27:04;;;;;;;17.55;9.65;;;;;;;-2.06;100.00;93056.38;5037909;28;20041;-76
2024/01/13 01:29:29;;;;;;;16.73;9.50;;;;;;;-2.05;100.00;93059.75;5037396;28;20069;-78
2024/01/13 01:31:58;;;;;;;15.65;10.45;;;;;;;-2.06;100.00;93058.16;5031742;28;20091;-79
2024/01/13 01:34:23;;;;;;;15.90;9.38;;;;;;;-2.04;100.00;93056.19;5031477;28;20021;-78
2024/01/13 01:36:50;;;;;;;14.52;9.50;;;;;;;-2.08;100.00;93055.78;5037974;28;20040;-78
2024/01/13 01:39:20;;;;;;;15.68;9.73;;;;;;;-2.13;100.00;93063.28;5039793;28;20059;-78
2024/01/13 01:41:46;;;;;;;14.27;8.98;;;;;;;-2.13;100.00;93068.41;5041028;28;20040;-78
2024/01/13 01:44:11;;;;;;;12.23;8.05;;;;;;;-2.16;100.00;93054.22;5050131;28;20025;-79
2024/01/13 01:46:39;;;;;;;13.25;7.85;;;;;;;-2.18;100.00;93063.09;5043416;28;20052;-79
2024/01/13 01:49:05;;;;;;;11.80;7.90;;;;;;;-2.20;100.00;93062.50;5042378;28;20041;-78
2024/01/13 01:51:32;;;;;;;10.77;6.95;;;;;;;-2.23;100.00;93057.72;5042507;28;20421;-78
2024/01/13 01:53:58;;;;;;;10.77;7.15;;;;;;;-2.25;100.00;93059.69;5024188;28;20048;-78
2024/01/13 01:56:28;;;;;;;13.38;7.93;;;;;;;-2.25;100.00;93059.69;5041458;28;20052;-78
2024/01/13 01:58:54;;;;;;;11.70;7.60;;;;;;;-2.24;100.00;93056.94;5042100;28;20180;-78
2024/01/13 02:01:22;;;;;;;13.10;8.20;;;;;;;-2.22;100.00;93056.75;5042133;28;20509;-78
2024/01/13 02:03:48;;;;;;;14.25;8.65;;;;;;;-2.24;100.00;93064.63;5041121;28;20037;-78
2024/01/13 02:06:14;;;;;;;12.82;8.75;;;;;;;-2.24;100.00;93061.28;5043989;28;20125;-79
2024/01/13 02:08:40;;;;;;;14.75;9.15;;;;;;;-2.24;100.00;93051.03;5041970;28;20104;-79
2024/01/13 02:11:07;;;;;;;15.23;9.75;;;;;;;-2.27;100.00;93049.66;5042926;28;20044;-78
2024/01/13 02:13:32;;;;;;;16.45;8.65;;;;;;;-2.27;100.00;93046.28;5042258;28;20040;-77
2024/01/13 02:15:59;;;;;;;14.73;9.82;;;;;;;-2.26;100.00;93045.31;5041121;28;20037;-77
2024/01/13 02:18:24;;;;;;;13.45;9.57;;;;;;;-2.27;100.00;93046.28;5042011;28;20044;-77
2024/01/13 02:20:50;;;;;;;14.85;9.30;;;;;;;-2.28;100.00;93047.28;5042751;28;20025;-77
2024/01/13 02:23:15;;;;;;;13.48;9.00;;;;;;;-2.35;100.00;93042.91;5053242;28;20488;-77
2024/01/13 02:25:41;;;;;;;15.40;9.80;;;;;;;-2.35;100.00;93042.13;5046382;28;20061;-78
2024/01/13 02:28:06;;;;;;;16.13;10.70;;;;;;;-2.36;100.00;93038.78;5046754;28;20165;-77
2024/01/13 02:30:32;;;;;;;17.15;10.88;;;;;;;-2.38;100.00;93035.59;5045779;28;20097;-77
2024/01/13 02:32:57;;;;;;;14.43;10.20;;;;;;;-2.36;100.00;93041.34;5045220;28;20029;-77
2024/01/13 02:35:23;;;;;;;15.48;10.52;;;;;;;-2.36;100.00;93038.78;5045029;28;20029;-77
2024/01/13 02:37:48;;;;;;;17.85;10.35;;;;;;;-2.35;100.00;93034.44;5046259;28;20033;-77
2024/01/13 02:40:14;;;;;;;15.98;9.95;;;;;;;-2.37;100.00;93034.63;5044829;28;20031;-77
2024/01/13 02:42:40;;;;;;;16.08;10.38;;;;;;;-2.37;100.00;93026.13;5044827;28;20034;-78
2024/01/13 02:45:06;;;;;;;19.77;10.93;;;;;;;-2.37;100.00;93026.91;5046364;28;20033;-77
2024/01/13 02:47:44;;;;;;;20.25;10.80;;;;;;;-2.38;100.00;93030.47;5043737;28;20083;-78
2024/01/13 02:50:11;;;;;;;19.73;11.15;;;;;;;-2.38;100.00;93027.91;5043143;28;20025;-78
2024/01/13 02:52:37;;;;;;;16.50;11.32;;;;;;;-2.40;100.00;93027.31;5044911;28;20021;-78
2024/01/13 02:55:03;;;;;;;17.38;11.43;;;;;;;-2.40;100.00;93027.31;5044175;28;20124;-77
2024/01/13 02:57:28;;;;;;;15.40;11.30;;;;;;;-2.40;100.00;93018.84;5045286;28;20026;-78
2024/01/13 02:59:54;;;;;;;16.20;11.50;;;;;;;-2.41;100.00;93020.63;5040029;28;20117;-78
2024/01/13 03:02:19;;;;;;;19.05;11.48;;;;;;;-2.43;100.00;93011.50;5033760;28;20045;-77
2024/01/13 03:04:45;;;;;;;20.67;11.60;;;;;;;-2.44;100.00;93015.88;5047942;28;20044;-77
2024/01/13 03:07:13;;;;;;;20.20;12.02;;;;;;;-2.44;100.00;93012.50;5048413;28;20039;-77
2024/01/13 03:09:39;;;;;;;20.15;11.98;;;;;;;-2.47;100.00;92998.31;5051181;28;20072;-78
2024/01/13 03:12:05;;;;;;;17.55;12.52;;;;;;;-2.48;100.00;93009.53;5044935;28;20046;-77
2024/01/13 03:14:31;;;;;;;20.50;13.07;;;;;;;-2.51;100.00;93002.25;5043227;28;20033;-77
2024/01/13 03:16:56;;;;;;;18.20;12.30;;;;;;;-2.54;100.00;92994.94;5026907;28;20072;-77
2024/01/13 03:19:22;;;;;;;18.85;12.75;;;;;;;-2.55;100.00;92985.66;5044136;28;20041;-77
2024/01/13 03:21:50;;;;;;;19.13;11.98;;;;;;;-2.54;100.00;92994.94;5045389;28;20133;-77
2024/01/13 03:24:15;;;;;;;16.15;11.02;;;;;;;-2.59;100.00;92971.66;5042675;28;20513;-77
2024/01/13 03:26:41;;;;;;;18.55;11.20;;;;;;;-2.55;100.00;92981.31;5042426;28;20065;-77
2024/01/13 03:29:06;;;;;;;18.98;11.65;;;;;;;-2.56;100.00;92981.53;5031330;28;20079;-76
2024/01/13 03:31:32;;;;;;;18.67;11.43;;;;;;;-2.57;100.00;92972.25;5025782;28;20052;-78
2024/01/13 03:33:57;;;;;;;17.02;10.25;;;;;;;-2.57;100.00;92979.94;5026656;28;20093;-78
2024/01/13 03:36:23;;;;;;;13.25;8.77;;;;;;;-2.57;100.00;92973.06;5035627;28;20084;-77
2024/01/13 03:38:49;;;;;;;9.77;7.00;;;;;;;-2.59;100.00;92971.66;5055258;28;20109;-77
2024/01/13 03:41:17;;;;;;;11.13;5.57;;;;;;;-2.64;100.00;92959.41;5054369;28;20029;-77
2024/01/13 03:43:42;;;;;;;8.77;5.13;;;;;;;-2.61;100.00;92965.91;5037555;28;20529;-76
2024/01/13 03:46:08;;;;;;;7.05;4.47;;;;;;;-2.60;100.00;92962.38;5053325;28;20065;-77
2024/01/13 03:48:34;;;;;;;7.43;4.05;;;;;;;-2.59;100.00;92958.81;5054361;28;20089;-77
2024/01/13 03:51:00;;;;;;;6.93;4.25;;;;;;;-2.63;100.00;92950.75;5046444;28;20036;-76
2024/01/13 03:53:25;;;;;;;8.32;4.70;;;;;;;-2.62;100.00;92959.22;5054571;28;20037;-76
2024/01/13 03:55:51;;;;;;;7.90;4.75;;;;;;;-2.64;100.00;92956.84;5053220;28;20033;-76
2024/01/13 03:58:16;;;;;;;6.63;3.90;;;;;;;-2.65;100.00;92954.50;5050127;28;20057;-77
2024/01/13 04:00:42;;;;;;;7.28;3.95;;;;;;;-2.65;100.00;92951.94;5037686;28;20021;-77
2024/01/13 04:03:07;;;;;;;7.90;4.95;;;;;;;-2.65;100.00;92954.50;5051960;28;20122;-78
2024/01/13 04:05:34;;;;;;;9.77;5.72;;;;;;;-2.66;100.00;92955.47;5046324;28;20033;-77
2024/01/13 04:08:00;;;;;;;10.85;6.57;;;;;;;-2.68;100.00;92955.66;5044896;28;20061;-77
2024/01/13 04:10:26;;;;;;;13.90;7.28;;;;;;;-2.72;100.00;92947.56;5043119;28;20037;-77
2024/01/13 04:12:56;;;;;;;11.10;7.40;;;;;;;-2.69;100.00;92950.75;5034880;28;20033;-77
2024/01/13 04:15:22;;;;;;;9.65;6.45;;;;;;;-2.73;100.00;92943.41;5049056;28;20099;-77
2024/01/13 04:17:47;;;;;;;11.23;6.75;;;;;;;-2.72;100.00;92945.00;5049655;28;20044;-77
2024/01/13 04:20:13;;;;;;;8.80;5.45;;;;;;;-2.73;100.00;92945.19;5043900;28;20057;-77
2024/01/13 04:22:38;;;;;;;8.50;5.30;;;;;;;-2.73;100.00;92945.97;5034395;28;20037;-77
2024/01/13 04:25:04;;;;;;;8.88;5.50;;;;;;;-2.74;100.00;92938.50;5043323;28;20033;-78
2024/01/13 04:27:30;;;;;;;7.38;4.72;;;;;;;-2.75;100.00;92940.28;5043152;28;20057;-78
2024/01/13 04:29:56;;;;;;;7.90;5.10;;;;;;;-2.75;100.00;92937.72;5044272;28;20032;-77
2024/01/13 04:32:21;;;;;;;8.32;4.53;;;;;;;-2.77;100.00;92934.56;5043381;28;20025;-77
2024/01/13 04:34:47;;;;;;;7.40;4.85;;;;;;;-2.79;100.00;92930.59;5042105;28;20457;-77
2024/01/13 04:37:13;;;;;;;9.02;4.45;;;;;;;-2.82;100.00;92934.34;5042112;28;20217;-77
2024/01/13 04:39:38;;;;;;;6.82;4.20;;;;;;;-2.81;100.00;92933.38;5041284;28;20048;-77
2024/01/13 04:42:04;;;;;;;8.80;5.15;;;;;;;-2.85;100.00;92926.25;5034260;28;20079;-77
2024/01/13 04:44:29;;;;;;;6.82;4.78;;;;;;;-2.86;100.00;92933.16;5041300;28;20480;-77
2024/01/13 04:46:55;;;;;;;7.43;4.80;;;;;;;-2.89;100.00;92936.09;5048057;28;20036;-77
2024/01/13 04:49:20;;;;;;;7.40;4.78;;;;;;;-2.92;100.00;92928.81;5024129;28;20056;-77
2024/01/13 04:51:46;;;;;;;6.60;4.03;;;;;;;-2.92;100.00;92935.72;5041582;28;20068;-77
2024/01/13 04:54:12;;;;;;;7.80;4.30;;;;;;;-2.95;100.00;92931.72;5040128;28;20081;-78
2024/01/13 04:56:38;;;;;;;7.30;4.25;;;;;;;-3.00;100.00;92927.19;5039733;28;20052;-77
2024/01/13 04:59:03;;;;;;;7.32;4.32;;;;;;;-2.97;100.00;92933.72;5023627;28;20045;-77
2024/01/13 05:01:29;;;;;;;7.97;5.00;;;;;;;-2.99;100.00;92935.69;5040496;28;20211;-78
2024/01/13 05:03:54;;;;;;;8.32;5.13;;;;;;;-3.05;100.00;92926.19;5040896;28;20445;-77
2024/01/13 05:06:20;;;;;;;7.50;4.82;;;;;;;-2.99;100.00;92938.25;5041594;28;20075;-78
2024/01/13 05:08:45;;;;;;;10.25;5.50;;;;;;;-2.98;100.00;92939.81;5033175;28;20049;-77
2024/01/13 05:11:11;;;;;;;9.73;6.03;;;;;;;-2.99;100.00;92940.81;5040735;28;20497;-77
2024/01/13 05:13:39;;;;;;;8.57;5.47;;;;;;;-3.00;100.00;92932.31;5040557;28;20791;-77
2024/01/13 05:16:04;;;;;;;9.48;6.15;;;;;;;-2.98;100.00;92942.38;5040451;28;20105;-78
2024/01/13 05:18:30;;;;;;;9.70;5.63;;;;;;;-2.99;100.00;92940.81;5029584;28;20072;-77
2024/01/13 05:20:56;;;;;;;10.75;6.38;;;;;;;-3.01;100.00;92937.66;5040442;28;20033;-77
2024/01/13 05:23:21;;;;;;;10.98;6.97;;;;;;;-2.97;100.00;92941.41;5038161;28;20048;-76
2024/01/13 05:25:47;;;;;;;14.50;7.45;;;;;;;-2.96;100.00;92940.41;5037268;28;20037;-78
2024/01/13 05:28:12;;;;;;;10.25;6.78;;;;;;;-2.95;100.00;92939.41;5042692;28;20029;-76
2024/01/13 05:30:38;;;;;;;13.27;7.57;;;;;;;-2.94;100.00;92938.44;5034877;28;20037;-77
2024/01/13 05:33:04;;;;;;;11.80;7.55;;;;;;;-2.96;100.00;92935.28;5042397;28;20036;-77
2024/01/13 05:35:29;;;;;;;14.50;8.23;;;;;;;-2.94;100.00;92928.19;5041351;28;20032;-77
2024/01/13 05:37:55;;;;;;;16.27;9.18;;;;;;;-2.97;100.00;92926.81;5039060;28;20018;-77
2024/01/13 05:40:20;;;;;;;12.23;7.75;;;;;;;-2.99;100.00;92928.00;5033309;28;20025;-77
2024/01/13 05:42:46;;;;;;;12.65;8.32;;;;;;;-3.06;100.00;92922.03;5039965;28;20045;-77
2024/01/13 05:45:12;;;;;;;11.88;7.88;;;;;;;-3.02;100.00;92930.94;5039106;28;20056;-77
2024/01/13 05:47:37;;;;;;;11.45;7.40;;;;;;;-3.08;100.00;92931.72;5050762;28;20060;-78
2024/01/13 05:50:03;;;;;;;9.95;6.32;;;;;;;-3.07;100.00;92928.94;5040414;28;20030;-78
2024/01/13 05:52:30;;;;;;;9.70;6.30;;;;;;;-3.07;100.00;92933.28;5041428;28;20481;-78
2024/01/13 05:54:56;;;;;;;9.40;6.22;;;;;;;-3.10;100.00;92929.34;5040567;28;20034;-77
2024/01/13 05:57:22;;;;;;;10.45;6.45;;;;;;;-3.07;100.00;92923.03;5040199;28;20036;-77
2024/01/13 05:59:48;;;;;;;11.07;6.15;;;;;;;-3.08;100.00;92931.72;5022440;28;20045;-77
2024/01/13 06:02:14;;;;;;;9.25;5.53;;;;;;;-3.22;100.00;92903.50;5039047;28;20095;-77
2024/01/13 06:04:40;;;;;;;11.60;6.32;;;;;;;-3.09;100.00;92930.13;5039627;28;20501;-77
2024/01/13 06:07:06;;;;;;;8.55;5.90;;;;;;;-3.08;100.00;92927.38;5041101;28;20029;-77
2024/01/13 06:09:32;;;;;;;13.15;5.80;;;;;;;-3.09;100.00;92920.66;5037583;28;20042;-77
2024/01/13 06:11:58;;;;;;;9.93;5.97;;;;;;;-3.08;100.00;92927.38;5032824;28;20044;-78
2024/01/13 06:14:25;;;;;;;9.95;6.25;;;;;;;-3.09;100.00;92917.31;5041253;28;20056;-77
2024/01/13 06:16:50;;;;;;;9.13;5.40;;;;;;;-3.08;100.00;92921.47;5034427;28;20041;-77
2024/01/13 06:19:16;;;;;;;8.48;5.53;;;;;;;-3.07;100.00;92917.91;5031700;28;20032;-77
2024/01/13 06:21:42;;;;;;;7.80;4.80;;;;;;;-3.07;100.00;92912.78;5037086;28;20093;-78
2024/01/13 06:24:12;;;;;;;6.80;4.18;;;;;;;-3.07;100.00;92921.25;5038296;28;20065;-77
2024/01/13 06:26:39;;;;;;;6.65;4.20;;;;;;;-3.06;100.00;92919.47;5044144;28;20021;-77
2024/01/13 06:29:05;;;;;;;6.60;4.53;;;;;;;-3.05;100.00;92921.06;5041316;28;20097;-77
2024/01/13 06:31:31;;;;;;;7.05;4.72;;;;;;;-3.04;100.00;92917.53;5041430;28;20037;-77
2024/01/13 06:33:57;;;;;;;7.50;4.78;;;;;;;-3.03;100.00;92919.13;5039125;28;20026;-77
2024/01/13 06:36:23;;;;;;;7.32;5.10;;;;;;;-3.04;100.00;92913.22;5039521;28;20041;-78
2024/01/13 06:38:49;;;;;;;7.07;4.65;;;;;;;-3.06;100.00;92920.28;5041329;28;20459;-77
2024/01/13 06:41:14;;;;;;;6.68;4.55;;;;;;;-3.05;100.00;92911.63;5040459;28;20053;-78
2024/01/13 06:43:40;;;;;;;7.82;4.13;;;;;;;-3.03;100.00;92906.31;5037452;28;20129;-78
2024/01/13 06:46:07;;;;;;;7.63;4.63;;;;;;;-3.06;100.00;92907.47;5028401;28;20038;-77
2024/01/13 06:48:33;;;;;;;8.00;4.75;;;;;;;-3.03;100.00;92908.88;5033259;28;20073;-77
2024/01/13 06:50:58;;;;;;;7.13;4.72;;;;;;;-3.04;100.00;92907.28;5033337;28;20100;-77
2024/01/13 06:53:24;;;;;;;6.75;4.60;;;;;;;-3.02;100.00;92910.44;5032791;28;20029;-77
2024/01/13 06:55:50;;;;;;;6.80;4.03;;;;;;;-3.02;100.00;92913.78;5031389;28;20116;-76
2024/01/13 06:58:15;;;;;;;8.13;5.18;;;;;;;-2.98;100.00;92907.28;5033411;28;20030;-77
2024/01/13 07:00:41;;;;;;;8.00;4.93;;;;;;;-2.97;100.00;92913.22;5015472;28;20448;-77
2024/01/13 07:03:07;;;;;;;7.55;4.90;;;;;;;-2.97;100.00;92903.75;5039488;28;20409;-77
2024/01/13 07:05:32;;;;;;;8.43;5.25;;;;;;;-2.96;100.00;92907.09;5040059;28;20036;-77
2024/01/13 07:07:59;;;;;;;10.07;5.15;;;;;;;-2.94;100.00;92905.94;5037768;28;20430;-77
2024/01/13 07:10:25;;;;;;;8.48;4.75;;;;;;;-2.94;100.00;92907.72;5026887;28;20037;-77
2024/01/13 07:12:51;;;;;;;7.30;5.05;;;;;;;-2.88;100.00;92906.94;5037521;28;20044;-78
2024/01/13 07:15:17;;;;;;;8.63;4.85;;;;;;;-2.85;100.00;92901.41;5037540;28;20021;-78
2024/01/13 07:17:42;;;;;;;7.80;5.00;;;;;;;-2.84;100.00;92909.88;5038159;28;20120;-77
2024/01/13 07:20:08;;;;;;;8.93;4.85;;;;;;;-2.83;100.00;92903.81;5037638;28;20041;-77
2024/01/13 07:22:34;;;;;;;8.27;4.97;;;;;;;-2.90;100.00;92892.72;5027910;28;20034;-77
2024/01/13 07:24:59;;;;;;;8.05;4.65;;;;;;;-2.79;100.00;92910.09;5034315;28;20036;-79
2024/01/13 07:27:25;;;;;;;8.80;5.28;;;;;;;-2.65;100.00;92909.16;5042982;28;20049;-80
2024/01/13 07:29:51;;;;;;;10.45;5.95;;;;;;;-1.86;100.00;92904.22;5042076;28;20334;-80
2024/01/13 07:32:17;;;;;;;9.00;5.70;;;;;;;-0.50;100.00;92905.84;5043783;28;20043;-78
2024/01/13 07:34:42;;;;;;;8.52;5.68;;;;;;;0.74;100.00;92896.44;5043368;28;20029;-79
2024/01/13 07:37:08;;;;;;;9.05;4.95;;;;;;;1.97;100.00;92896.19;5043644;28;20067;-77
2024/01/13 07:39:33;;;;;;;8.07;5.00;;;;;;;3.11;100.00;92893.94;5048980;28;20037;-79
2024/01/13 07:41:59;;;;;;;6.88;4.45;;;;;;;4.11;100.00;92888.38;5031457;28;20037;-80
2024/01/13 07:44:25;;;;;;;7.25;4.28;;;;;;;5.03;100.00;92894.03;5044465;28;20392;-79
2024/01/13 07:46:50;;;;;;;7.00;4.60;;;;;;;5.85;93.57;92893.03;5043426;28;20034;-80
2024/01/13 07:49:16;;;;;;;8.50;4.50;;;;;;;6.31;83.60;92890.84;5040888;28;20034;-81
2024/01/13 07:51:42;;;;;;;9.32;4.60;;;;;;;7.27;80.63;92895.00;5040564;28;20042;-79
2024/01/13 07:54:07;;;;;;;7.00;4.18;;;;;;;7.87;74.71;92895.41;5047960;28;20117;-77
2024/01/13 07:56:35;;;;;;;6.95;4.75;;;;;;;8.33;70.72;92897.25;5037212;28;20390;-78
2024/01/13 07:59:03;;;;;;;6.38;4.47;;;;;;;9.14;66.32;92891.13;5036996;28;20408;-77
2024/01/13 08:01:29;;;;;;;7.95;5.30;;;;;;;9.87;58.60;92896.78;5036607;28;20332;-79
2024/01/13 08:03:54;;;;;;;7.45;5.38;;;;;;;10.09;60.79;92893.78;5031794;28;20448;-78
2024/01/13 08:06:22;;;;;;;7.72;5.10;;;;;;;10.13;59.69;92890.34;5027926;28;20053;-78
2024/01/13 08:08:47;;;;;;;7.85;5.20;;;;;;;10.74;57.92;92888.28;5030465;28;20046;-79
2024/01/13 08:11:13;;;;;;;6.38;4.80;;;;;;;11.26;52.93;92897.19;5036333;28;20041;-81
2024/01/13 08:13:38;;;;;;;6.15;4.57;;;;;;;11.36;52.84;92902.28;5017366;28;20037;-79
2024/01/13 08:16:04;;;;;;;7.53;4.72;;;;;;;11.76;53.49;92902.09;5030833;28;20408;-79
2024/01/13 08:18:30;;;;;;;6.55;4.80;;;;;;;12.67;47.32;92899.94;5033181;28;20033;-80
2024/01/13 08:20:55;;;;;;;7.00;5.25;;;;;;;12.78;45.62;92899.78;5027771;28;20385;-82
2024/01/13 08:23:21;;;;;;;7.07;5.50;;;;;;;12.30;45.58;92903.44;5036098;28;20032;-81
2024/01/13 08:25:46;;;;;;;7.18;5.15;;;;;;;12.96;45.42;92895.53;5032719;28;20397;-79
2024/01/13 08:28:12;;;;;;;7.40;5.25;;;;;;;13.27;43.39;92893.13;5031378;28;20580;-78
2024/01/13 08:30:40;;;;;;;5.88;4.78;;;;;;;13.21;44.63;92899.53;5031093;28;20033;-78
2024/01/13 08:33:05;;;;;;;7.50;5.60;;;;;;;13.46;42.15;92904.31;5031739;28;20085;-78
2024/01/13 08:35:31;;;;;;;8.02;5.15;;;;;;;14.00;42.19;92909.81;5032713;28;20135;-77
2024/01/13 08:37:57;;;;;;;7.43;5.32;;;;;;;13.99;41.00;92912.75;5005717;28;20135;-78
2024/01/13 08:40:22;;;;;;;7.18;5.30;;;;;;;12.77;43.96;92921.88;5032226;28;20041;-77
2024/01/13 08:42:49;;;;;;;5.85;4.68;;;;;;;13.86;42.41;92909.84;5036105;28;20114;-77
2024/01/13 08:45:15;;;;;;;6.63;4.85;;;;;;;14.13;41.43;92913.47;5030603;28;20053;-78
2024/01/13 08:47:41;;;;;;;7.50;5.22;;;;;;;14.89;39.32;92907.53;5028205;28;20436;-78
2024/01/13 08:50:06;;;;;;;6.88;4.72;;;;;;;15.67;41.31;92910.50;5025361;28;20053;-78
2024/01/13 08:52:32;;;;;;;7.47;5.00;;;;;;;14.67;38.86;92910.97;5034215;28;20506;-80
2024/01/13 08:54:59;;;;;;;6.00;4.53;;;;;;;15.55;39.04;92913.69;5026419;28;20065;-78
2024/01/13 08:57:24;;;;;;;6.22;4.47;;;;;;;15.56;38.23;92910.00;5005917;28;20041;-77
2024/01/13 08:59:50;;;;;;;6.38;4.90;;;;;;;14.75;40.71;92908.38;5027566;28;20041;-78
2024/01/13 09:02:16;;;;;;;7.70;5.38;;;;;;;12.90;42.98;92903.50;5024525;28;20037;-77
2024/01/13 09:04:41;;;;;;;7.20;5.13;;;;;;;12.59;45.98;92915.59;5030591;28;20259;-77
2024/01/13 09:07:07;;;;;;;6.97;4.82;;;;;;;11.00;50.99;92907.91;5025621;28;20033;-78
2024/01/13 09:09:32;;;;;;;7.07;5.30;;;;;;;10.58;53.45;92903.34;5026701;28;20061;-77
2024/01/13 09:11:58;;;;;;;9.40;5.45;;;;;;;10.28;53.82;92904.34;5030518;28;20111;-77
2024/01/13 09:14:24;;;;;;;7.15;5.60;;;;;;;9.20;59.76;92901.56;5029408;28;20059;-77
2024/01/13 09:16:49;;;;;;;6.90;4.75;;;;;;;8.69;62.73;92910.28;5029437;28;20754;-77
2024/01/13 09:19:16;;;;;;;7.57;5.30;;;;;;;7.77;66.99;92912.84;5028067;28;20497;-77
2024/01/13 09:21:41;;;;;;;8.70;5.55;;;;;;;8.58;65.92;92898.28;5029498;28;20049;-78
2024/01/13 09:24:07;;;;;;;8.82;5.85;;;;;;;8.52;65.22;92900.91;5029892;28;20049;-76
2024/01/13 09:26:32;;;;;;;8.68;5.80;;;;;;;8.39;66.31;92903.25;5028867;28;20041;-76
2024/01/13 09:28:58;;;;;;;8.95;5.95;;;;;;;8.95;63.10;92900.59;5028124;28;20111;-76
2024/01/13 09:31:24;;;;;;;9.13;5.40;;;;;;;8.42;63.17;92903.56;5027281;28;20120;-76
2024/01/13 09:33:49;;;;;;;8.23;5.53;;;;;;;8.42;63.44;92898.34;5024433;28;20087;-75
2024/01/13 09:36:15;;;;;;;7.38;5.03;;;;;;;8.69;63.52;92905.88;5022626;28;20026;-76
2024/01/13 09:38:40;;;;;;;7.00;4.57;;;;;;;7.83;65.80;92907.38;5027615;28;20034;-76
2024/01/13 09:41:06;;;;;;;6.80;4.75;;;;;;;7.98;67.13;92909.25;5027514;28;20436;-75
2024/01/13 09:43:44;;;;;;;7.15;5.00;;;;;;;7.80;65.10;92905.28;5028884;28;20046;-76
2024/01/13 09:46:09;;;;;;;8.68;4.15;;;;;;;8.32;61.36;92908.72;5027701;28;20068;-75
2024/01/13 09:48:35;;;;;;;7.32;4.10;;;;;;;8.10;61.75;92916.81;5027058;28;20060;-75
2024/01/13 09:51:02;;;;;;;5.78;4.00;;;;;;;8.32;60.25;92922.53;5026157;28;20045;-75
2024/01/13 09:53:29;;;;;;;7.78;4.78;;;;;;;8.68;58.15;92927.00;5026431;28;20037;-76
2024/01/13 09:56:03;;;;;;;7.10;4.68;;;;;;;8.37;58.95;92926.97;5027807;28;20522;-76
2024/01/13 09:58:29;;;;;;;8.63;4.55;;;;;;;8.04;63.35;92930.91;5025034;28;20030;-76
2024/01/13 10:00:56;;;;;;;6.45;3.90;;;;;;;7.67;64.35;92930.03;5027141;28;20033;-76
2024/01/13 10:03:21;;;;;;;7.38;4.03;;;;;;;7.76;64.31;92934.75;5026633;28;20037;-75
2024/01/13 10:05:50;;;;;;;7.07;3.67;;;;;;;8.09;61.36;92923.84;5028696;28;20130;-76
2024/01/13 10:08:19;;;;;;;5.45;3.58;;;;;;;8.20;63.36;92927.25;5019243;28;20058;-76
2024/01/13 10:10:45;;;;;;;6.93;4.72;;;;;;;8.14;63.64;92907.41;5024726;28;20029;-78
2024/01/13 10:13:13;;;;;;;7.78;4.75;;;;;;;7.98;66.40;92914.44;5025785;28;20517;-76
2024/01/13 10:15:39;;;;;;;6.22;4.28;;;;;;;7.51;66.70;92908.34;5025088;28;20075;-77
2024/01/13 10:18:06;;;;;;;7.93;4.07;;;;;;;7.43;68.54;92902.84;5032471;28;20033;-76
2024/01/13 10:20:32;;;;;;;6.85;4.07;;;;;;;6.56;74.18;92910.25;5030715;28;20025;-77
2024/01/13 10:22:58;;;;;;;6.40;4.30;;;;;;;6.46;74.17;92909.16;5028672;28;20083;-77
2024/01/13 10:25:23;;;;;;;9.07;4.63;;;;;;;6.30;74.56;92901.50;5026874;28;20393;-76
2024/01/13 10:27:52;;;;;;;7.68;4.40;;;;;;;6.75;72.99;92898.41;5027346;28;20041;-76
2024/01/13 10:30:17;;;;;;;5.50;4.00;;;;;;;7.05;71.26;92897.78;5026854;28;20026;-76
2024/01/13 10:32:43;;;;;;;7.55;4.80;;;;;;;7.34;68.57;92897.38;5025545;28;20553;-76
2024/01/13 10:35:15;;;;;;;7.13;4.60;;;;;;;7.35;69.04;92895.56;5027335;28;20034;-76
2024/01/13 10:37:41;;;;;;;7.57;4.57;;;;;;;7.28;64.85;92895.78;5024855;28;20111;-76
2024/01/13 10:40:08;;;;;;;7.22;4.40;;;;;;;6.81;67.43;92884.38;5017232;28;20037;-76
2024/01/13 10:42:37;;;;;;;8.07;4.15;;;;;;;6.75;69.28;92879.41;5027776;28;20071;-76
2024/01/13 10:45:07;;;;;;;7.80;4.70;;;;;;;6.71;71.26;92866.13;5030330;28;20053;-77
2024/01/13 10:47:38;;;;;;;4.80;3.35;;;;;;;6.98;69.61;92870.41;5028710;28;20167;-76
2024/01/13 10:50:05;;;;;;;9.67;4.10;;;;;;;6.84;72.61;92870.84;5029307;28;20087;-77
2024/01/13 10:52:41;;;;;;;5.38;3.70;;;;;;;7.21;69.43;92871.81;5025613;28;20030;-76
2024/01/13 10:55:09;;;;;;;7.80;3.80;;;;;;;7.49;72.96;92841.91;5026539;28;20048;-76
2024/01/13 10:57:36;;;;;;;7.18;4.65;;;;;;;7.99;65.94;92850.81;5027926;28;20034;-78
2024/01/13 11:00:04;;;;;;;7.80;3.85;;;;;;;8.29;64.12;92841.44;5035453;28;20033;-81
2024/01/13 11:02:32;;;;;;;6.95;3.92;;;;;;;8.53;60.90;92837.25;5031364;28;20030;-78
2024/01/13 11:04:59;;;;;;;8.35;4.95;;;;;;;8.41;61.84;92834.13;5034007;28;20033;-78
2024/01/13 11:07:25;;;;;;;7.85;4.88;;;;;;;8.10;62.81;92826.31;5032502;28;20029;-77
2024/01/13 11:09:53;;;;;;;8.35;4.47;;;;;;;8.13;64.00;92817.22;5019560;28;20045;-77
2024/01/13 11:12:40;;;;;;;6.28;4.13;;;;;;;8.13;64.15;92825.81;5032883;28;20030;-76
2024/01/13 11:15:14;;;;;;;7.60;4.30;;;;;;;7.80;67.80;92821.13;5026664;28;20518;-76
2024/01/13 11:17:40;;;;;;;7.30;4.40;;;;;;;7.67;66.58;92825.78;5027777;28;21003;-76
2024/01/13 11:20:08;;;;;;;7.57;4.90;;;;;;;7.60;67.58;92827.09;5029033;28;20040;-76